首页
METAR-TAF:

METAR-TAF

机场 :

拉蒂纳, 意大利

纬度: 41-33N, 经度: 012-54E, 海拔: 25米

当前天气观测

该预报发布于1小时和13分钟前的04:55 UTC
风速3节,风向西北
温度 16°C
湿度 82%
气压 1013 hPa
能见度10公里或以上
少量云层高于7000英尺

METAR: LIRL 230455Z 31003KT 9999 FEW070 16/13 Q1013 RMK FEW MON INVIS VAR RAPID VIS MIN 9999 WIND THR12 31004KT WIND THR30 31005KT BLU

时间: 08:08 (06:08 UTC)

预报

该预报发布于1小时和8分钟前的05:00 UTC
预报有效从23日的 06点(UTC)到 23日的 15点(UTC)
风速3节,风向多变
能见度10公里或以上
少量云层高于3000英尺
短暂存在
从 23日的 06点(UTC)到 23日的 11点(UTC)
散云层高于2500英尺
几率 30% :
短暂存在
从 23日的 11点(UTC)到 23日的 15点(UTC)
能見度: 5000
少量云层高于1800英尺, 积雨云.
阵雨
成为
从 23日的 11点(UTC)到 23日的 13点(UTC)
风速11节,风向南转西南

TAF: LIRL 230500Z 2306/2315 VRB03KT 9999 FEW030 TEMPO 2306/2311 RA SCT025 PROB30 TEMPO 2311/2315 5000 SHRA FEW018CB BECMG 2311/2313 21011KT

超过4000个机场的气象观测和天气预报(METAR&TAF报告)。

可查询的气象台以黄色和红色小点在地图上表示。

将鼠标移到小点上方,可查看气象台名称。

然后点击查看天气观测和预报。

如需切换地图:点击带黑十字的绿色按钮放大地图;点击带横线的绿色按钮缩小地图;或者点击绿色箭头查看邻近地区的地图。


METAR-TAF: